createdAt,value
2019-04-23T00:02:52.437Z,2.57
2019-04-23T00:06:00.448Z,3.00
2019-04-23T00:08:35.783Z,2.97
2019-04-23T00:11:20.083Z,3.57
2019-04-23T00:14:15.162Z,3.37
2019-04-23T00:16:57.778Z,2.73
2019-04-23T00:19:56.041Z,3.00
2019-04-23T00:25:49.096Z,3.40
2019-04-23T00:28:38.932Z,2.80
2019-04-23T00:31:26.128Z,3.20
2019-04-23T00:34:10.931Z,3.00
2019-04-23T00:37:01.585Z,3.20
2019-04-23T00:39:52.823Z,3.83
2019-04-23T00:42:41.574Z,3.00
2019-04-23T00:45:34.943Z,2.33
2019-04-23T00:48:30.225Z,3.27
2019-04-23T00:51:02.179Z,2.83
2019-04-23T00:54:02.667Z,3.03
2019-04-23T00:56:54.573Z,3.03
2019-04-23T00:59:50.524Z,3.20
2019-04-23T01:02:33.283Z,3.10
2019-04-23T01:08:13.002Z,3.30
2019-04-23T01:11:01.856Z,2.93
2019-04-23T01:13:49.603Z,3.50
2019-04-23T01:16:40.987Z,3.60
2019-04-23T01:19:37.515Z,3.27
2019-04-23T01:22:06.423Z,3.37
2019-04-23T01:25:11.031Z,3.27
2019-04-23T01:28:35.618Z,3.50
2019-04-23T01:31:24.401Z,3.90
2019-04-23T01:34:13.463Z,3.00
2019-04-23T01:37:05.092Z,3.87
2019-04-23T01:39:52.844Z,3.70
2019-04-23T01:45:26.890Z,3.50
2019-04-23T01:48:17.883Z,3.57
2019-04-23T01:51:14.994Z,3.73
2019-04-23T01:53:56.689Z,4.17
2019-04-23T01:56:47.197Z,4.10
2019-04-23T01:59:45.868Z,4.10
2019-04-23T02:02:39.108Z,4.60
2019-04-23T02:05:27.484Z,3.87
2019-04-23T02:08:08.310Z,4.10
2019-04-23T02:13:55.592Z,3.60
2019-04-23T02:19:29.418Z,3.60
2019-04-23T02:22:31.493Z,3.70
2019-04-23T02:25:31.693Z,4.07
2019-04-23T02:28:24.288Z,4.47
2019-04-23T02:31:33.049Z,4.40
2019-04-23T02:34:01.235Z,4.43
2019-04-23T02:45:21.913Z,4.47
2019-04-23T02:48:19.366Z,4.27
2019-04-23T02:51:13.357Z,4.40
2019-04-23T02:54:01.210Z,4.20
2019-04-23T03:02:45.154Z,4.97
2019-04-23T03:05:25.041Z,4.27
2019-04-23T03:08:20.293Z,4.50
2019-04-23T03:11:07.377Z,4.97
2019-04-23T03:14:03.729Z,4.30
2019-04-23T03:16:55.040Z,4.70
2019-04-23T03:19:47.966Z,4.47
2019-04-23T03:22:56.030Z,5.30
2019-04-23T03:25:45.539Z,5.07
2019-04-23T03:33:12.569Z,5.30
2019-04-23T03:35:09.605Z,5.43
2019-04-23T03:42:42.464Z,4.70
2019-04-23T03:48:26.141Z,5.80
2019-04-23T03:51:11.587Z,5.17
2019-04-23T03:57:13.365Z,5.70
2019-04-23T03:59:52.182Z,5.23
2019-04-23T04:02:40.040Z,5.97
2019-04-23T04:05:32.721Z,6.00
2019-04-23T04:08:13.266Z,6.07
2019-04-23T04:13:51.017Z,7.10
2019-04-23T04:16:42.779Z,5.97
2019-04-23T04:19:31.585Z,7.07
2019-04-23T04:25:06.983Z,6.87
2019-04-23T04:28:08.478Z,7.13
2019-04-23T04:30:49.127Z,7.33
2019-04-23T04:36:45.612Z,7.40
2019-04-23T04:39:15.106Z,7.23
2019-04-23T04:42:06.089Z,7.47
2019-04-23T04:50:35.207Z,8.67
2019-04-23T04:53:47.734Z,8.43
2019-04-23T04:59:07.693Z,7.90
2019-04-23T05:01:58.823Z,8.60
2019-04-23T05:04:54.239Z,9.43
2019-04-23T05:07:34.341Z,8.40
2019-04-23T05:10:30.183Z,9.03
2019-04-23T05:15:58.248Z,8.70
2019-04-23T05:21:55.570Z,10.10
2019-04-23T05:27:27.629Z,10.40
2019-04-23T05:30:23.042Z,9.90
2019-04-23T05:33:13.036Z,10.20
2019-04-23T05:36:12.606Z,9.23
2019-04-23T05:39:12.283Z,9.63
2019-04-23T05:41:36.791Z,11.37
2019-04-23T05:44:29.937Z,10.57
2019-04-23T05:47:25.402Z,10.63
2019-04-23T05:50:09.930Z,11.20
2019-04-23T05:52:59.255Z,11.53
2019-04-23T05:55:49.873Z,11.20
2019-04-23T05:58:40.096Z,11.37
2019-04-23T06:09:59.325Z,10.53
2019-04-23T06:12:43.672Z,11.23
2019-04-23T06:15:41.714Z,10.63
2019-04-23T06:18:33.202Z,10.90
2019-04-23T06:21:25.293Z,12.20
2019-04-23T06:24:16.765Z,10.73
2019-04-23T06:27:00.653Z,11.47
2019-04-23T06:29:45.039Z,11.23
2019-04-23T06:32:51.439Z,11.83
2019-04-23T06:35:46.901Z,12.30
2019-04-23T06:41:13.099Z,10.43
2019-04-23T06:44:22.448Z,10.93
2019-04-23T06:47:06.866Z,11.13
2019-04-23T06:49:57.191Z,11.97
2019-04-23T06:52:43.736Z,11.50
2019-04-23T06:55:35.749Z,11.13
2019-04-23T07:01:14.560Z,10.87
2019-04-23T07:04:08.352Z,10.60
2019-04-23T07:07:13.679Z,11.20
2019-04-23T07:09:45.590Z,11.10
2019-04-23T07:12:36.410Z,11.90
2019-04-23T07:15:36.296Z,11.93
2019-04-23T07:18:10.030Z,11.67
2019-04-23T07:21:06.512Z,11.93
2019-04-23T07:26:49.488Z,12.20
2019-04-23T07:29:31.116Z,12.63
2019-04-23T07:32:23.059Z,14.20
2019-04-23T07:35:24.490Z,12.47
2019-04-23T07:38:28.718Z,11.17
2019-04-23T07:40:55.807Z,12.03
2019-04-23T07:43:54.761Z,12.30
2019-04-23T07:49:39.712Z,12.00
2019-04-23T07:52:33.472Z,11.90
2019-04-23T07:55:25.495Z,11.70
2019-04-23T07:58:14.054Z,11.47
2019-04-23T08:01:09.671Z,12.33
2019-04-23T08:03:52.867Z,11.43
2019-04-23T08:06:37.582Z,12.23
2019-04-23T08:09:28.099Z,11.03
2019-04-23T08:12:19.397Z,11.37
2019-04-23T08:15:07.139Z,12.03
2019-04-23T08:17:51.239Z,11.13
2019-04-23T08:23:49.616Z,10.93
2019-04-23T08:29:45.916Z,11.43
2019-04-23T08:32:29.519Z,11.20
2019-04-23T08:35:30.093Z,12.50
2019-04-23T08:38:26.019Z,10.77
2019-04-23T08:41:16.290Z,10.80
2019-04-23T08:44:00.999Z,9.90
2019-04-23T08:47:13.354Z,10.20
2019-04-23T08:52:30.083Z,10.43
2019-04-23T08:55:32.603Z,10.23
2019-04-23T08:58:19.175Z,10.30
2019-04-23T09:01:06.337Z,11.77
2019-04-23T09:03:53.541Z,10.30
2019-04-23T09:06:47.533Z,10.73
2019-04-23T09:09:34.953Z,10.63
2019-04-23T09:12:30.340Z,10.07
2019-04-23T09:15:16.811Z,10.17
2019-04-23T09:20:48.184Z,10.93
2019-04-23T09:23:46.870Z,10.43
2019-04-23T09:26:37.953Z,10.03
2019-04-23T09:29:30.592Z,9.97
2019-04-23T09:35:27.480Z,9.83
2019-04-23T09:38:34.464Z,10.30
2019-04-23T09:44:56.611Z,9.50
2019-04-23T09:47:58.501Z,9.47
2019-04-23T09:50:46.867Z,11.07
2019-04-23T09:56:23.584Z,10.20
2019-04-23T09:59:20.914Z,10.10
2019-04-23T10:01:57.287Z,10.50
2019-04-23T10:04:39.869Z,9.53
2019-04-23T10:07:28.568Z,10.07
2019-04-23T10:10:05.386Z,9.40
2019-04-23T10:12:53.998Z,10.33
2019-04-23T10:15:46.020Z,9.77
2019-04-23T10:18:33.151Z,9.70
2019-04-23T10:21:21.544Z,9.37
2019-04-23T10:24:09.660Z,10.07
2019-04-23T10:26:59.875Z,9.73
2019-04-23T10:29:49.934Z,10.63
2019-04-23T10:32:39.827Z,9.50
2019-04-23T10:35:38.708Z,9.30
2019-04-23T10:38:20.232Z,10.23
2019-04-23T10:41:07.355Z,10.00
2019-04-23T10:44:09.095Z,10.67
2019-04-23T10:47:44.716Z,11.17
2019-04-23T10:54:15.814Z,8.97
2019-04-23T10:56:56.992Z,9.40
2019-04-23T11:05:28.897Z,9.87
2019-04-23T11:08:13.114Z,9.27
2019-04-23T11:11:12.349Z,9.37
2019-04-23T11:13:53.114Z,9.50
2019-04-23T11:19:39.987Z,9.13
2019-04-23T11:25:20.509Z,10.30
2019-04-23T11:28:11.504Z,9.87
2019-04-23T11:30:45.235Z,9.88
2019-04-23T11:33:50.926Z,9.78
2019-04-23T11:39:32.746Z,10.53
2019-04-23T11:42:16.674Z,9.28
2019-04-23T11:45:06.747Z,9.83
2019-04-23T11:51:18.759Z,9.58
2019-04-23T11:56:51.470Z,9.55
2019-04-23T11:59:27.501Z,8.90
2019-04-23T12:08:37.795Z,9.75
2019-04-23T12:23:06.380Z,9.55
2019-04-23T12:25:48.113Z,9.70
2019-04-23T12:28:40.557Z,10.23
2019-04-23T12:31:31.481Z,9.13
2019-04-23T12:34:25.758Z,10.25
2019-04-23T12:37:17.697Z,10.08
2019-04-23T12:42:54.075Z,9.33
2019-04-23T12:48:41.687Z,9.47
2019-04-23T12:51:33.485Z,10.00
2019-04-23T12:54:23.899Z,10.20
2019-04-23T12:57:05.156Z,9.23
2019-04-23T12:59:49.860Z,10.27
2019-04-23T13:05:28.763Z,11.50
2019-04-23T13:08:30.602Z,9.80
2019-04-23T13:11:08.248Z,10.57
2019-04-23T13:13:58.726Z,10.10
2019-04-23T13:17:01.826Z,10.70
2019-04-23T13:19:47.430Z,9.83
2019-04-23T13:22:44.675Z,10.10
2019-04-23T13:28:17.368Z,10.27
2019-04-23T13:31:09.429Z,10.43
2019-04-23T13:33:51.900Z,10.20
2019-04-23T13:36:46.804Z,9.50
2019-04-23T13:39:41.866Z,10.03
2019-04-23T13:42:41.047Z,9.50
2019-04-23T13:45:33.278Z,9.30
2019-04-23T13:48:06.256Z,10.60
2019-04-23T13:50:59.462Z,10.10
2019-04-23T13:53:50.283Z,8.90
2019-04-23T13:57:05.860Z,9.50
2019-04-23T13:59:30.660Z,10.23
2019-04-23T14:02:27.625Z,8.93
2019-04-23T14:05:33.147Z,10.43
2019-04-23T14:08:33.538Z,9.33
2019-04-23T14:14:24.984Z,9.53
2019-04-23T14:17:21.981Z,9.37
2019-04-23T14:19:45.264Z,9.93
2019-04-23T14:22:51.285Z,9.10
2019-04-23T14:25:16.516Z,9.27
2019-04-23T14:34:01.370Z,8.47
2019-04-23T14:36:42.837Z,9.10
2019-04-23T14:39:37.359Z,8.80
2019-04-23T14:42:24.573Z,9.00
2019-04-23T14:45:19.122Z,9.13
2019-04-23T14:48:09.030Z,9.80
2019-04-23T14:51:00.527Z,8.73
2019-04-23T14:53:45.760Z,9.70
2019-04-23T14:56:56.293Z,8.27
2019-04-23T14:59:16.310Z,8.80
2019-04-23T15:05:04.052Z,8.93
2019-04-23T15:07:51.368Z,9.10
2019-04-23T15:16:22.307Z,8.40
2019-04-23T15:22:21.644Z,8.77
2019-04-23T15:25:21.252Z,8.20
2019-04-23T15:30:50.244Z,8.47
2019-04-23T15:33:46.637Z,8.00
2019-04-23T15:36:58.142Z,9.57
2019-04-23T15:39:42.858Z,9.80
2019-04-23T15:42:12.634Z,8.30
2019-04-23T15:45:08.073Z,8.80
2019-04-23T15:47:49.322Z,8.97
2019-04-23T15:50:37.960Z,8.57
2019-04-23T15:53:17.507Z,8.03
2019-04-23T15:56:26.490Z,9.17
2019-04-23T16:01:41.182Z,9.03
2019-04-23T16:04:18.127Z,9.27
2019-04-23T16:07:08.016Z,8.23
2019-04-23T16:13:18.462Z,8.50
2019-04-23T16:16:10.619Z,8.37
2019-04-23T16:19:13.738Z,8.67
2019-04-23T16:22:16.643Z,8.70
2019-04-23T16:24:55.525Z,9.77
2019-04-23T16:27:34.899Z,8.53
2019-04-23T16:33:16.958Z,10.10
2019-04-23T16:36:18.401Z,9.40
2019-04-23T16:39:04.427Z,10.40
2019-04-23T16:41:57.503Z,9.67
2019-04-23T16:44:48.715Z,9.80
2019-04-23T16:47:29.727Z,9.10
2019-04-23T16:53:15.744Z,10.07
2019-04-23T16:56:16.447Z,10.47
2019-04-23T16:58:55.217Z,9.40
2019-04-23T17:01:43.455Z,9.80
2019-04-23T17:04:30.309Z,9.43
2019-04-23T17:07:17.856Z,9.87
2019-04-23T17:10:16.104Z,9.40
2019-04-23T17:13:13.730Z,11.80
2019-04-23T17:18:41.832Z,10.80
2019-04-23T17:21:33.115Z,9.43
2019-04-23T17:27:16.564Z,9.03
2019-04-23T17:29:58.048Z,10.07
2019-04-23T17:33:07.532Z,10.00
2019-04-23T17:36:22.828Z,9.43
2019-04-23T17:42:39.814Z,10.27
2019-04-23T17:48:27.392Z,10.10
2019-04-23T17:51:25.361Z,9.60
2019-04-23T17:57:11.598Z,9.63
2019-04-23T18:05:36.727Z,10.03
2019-04-23T18:08:21.302Z,10.40
2019-04-23T18:14:03.788Z,11.27
2019-04-23T18:20:06.148Z,11.83
2019-04-23T18:22:58.599Z,11.40
2019-04-23T18:25:43.317Z,12.03
2019-04-23T18:28:37.280Z,10.87
2019-04-23T18:31:31.711Z,12.70
2019-04-23T18:34:23.832Z,11.77
2019-04-23T18:37:24.617Z,12.97
2019-04-23T18:39:59.583Z,11.17
2019-04-23T18:42:53.554Z,11.83
2019-04-23T18:45:59.179Z,12.10
2019-04-23T18:51:40.587Z,12.23
2019-04-23T18:54:10.694Z,12.77
2019-04-23T18:57:09.868Z,13.40
2019-04-23T19:03:11.405Z,13.03
2019-04-23T19:10:08.918Z,12.57
2019-04-23T19:12:45.007Z,12.60
2019-04-23T19:18:22.241Z,12.80
2019-04-23T19:23:55.011Z,14.20
2019-04-23T19:29:43.986Z,13.10
2019-04-23T19:32:24.456Z,13.23
2019-04-23T19:35:46.194Z,14.13
2019-04-23T19:38:11.246Z,13.80
2019-04-23T19:41:03.905Z,14.40
2019-04-23T19:43:53.061Z,14.17
2019-04-23T19:46:49.010Z,13.17
2019-04-23T19:52:10.831Z,14.20
2019-04-23T19:55:11.961Z,14.83
2019-04-23T19:58:04.591Z,13.83
2019-04-23T20:06:58.578Z,14.40
2019-04-23T20:09:37.369Z,14.47
2019-04-23T20:12:05.937Z,13.60
2019-04-23T20:14:58.214Z,13.93
2019-04-23T20:17:51.369Z,14.37
2019-04-23T20:20:49.747Z,14.47
2019-04-23T20:23:55.404Z,14.60
2019-04-23T20:30:02.860Z,14.30
2019-04-23T20:31:39.364Z,14.50
2019-04-23T20:35:48.774Z,14.90
2019-04-23T20:38:33.013Z,15.17
2019-04-23T20:41:27.914Z,14.20
2019-04-23T20:44:01.793Z,15.10
2019-04-23T20:47:00.512Z,14.10
2019-04-23T20:52:30.095Z,15.50
2019-04-23T20:55:47.210Z,15.60
2019-04-23T20:58:48.245Z,16.13
2019-04-23T21:01:57.175Z,15.20
2019-04-23T21:04:36.494Z,14.70
2019-04-23T21:07:31.297Z,15.07
2019-04-23T21:15:45.977Z,16.10
2019-04-23T21:18:37.065Z,15.27
2019-04-23T21:21:25.934Z,15.63
2019-04-23T21:24:15.081Z,15.60
2019-04-23T21:27:21.689Z,15.50
2019-04-23T21:30:03.365Z,15.80
2019-04-23T21:32:58.995Z,16.70
2019-04-23T21:39:38.949Z,14.87
2019-04-23T21:42:35.828Z,15.90
2019-04-23T21:45:19.332Z,16.73
2019-04-23T21:48:08.593Z,16.03
2019-04-23T21:50:58.036Z,16.60
2019-04-23T21:53:50.690Z,15.50
2019-04-23T21:56:37.202Z,16.93
2019-04-23T21:59:35.431Z,16.07
2019-04-23T22:02:10.792Z,15.40
2019-04-23T22:05:01.140Z,16.13
2019-04-23T22:10:47.841Z,16.83
2019-04-23T22:13:41.580Z,16.93
2019-04-23T22:16:23.441Z,17.00
2019-04-23T22:21:55.590Z,16.00
2019-04-23T22:24:48.560Z,17.77
2019-04-23T22:27:44.274Z,17.20
2019-04-23T22:30:30.695Z,17.37
2019-04-23T22:33:19.584Z,17.40
2019-04-23T22:36:09.796Z,16.70
2019-04-23T22:38:59.982Z,18.93
2019-04-23T22:44:39.840Z,18.10
2019-04-23T22:47:36.595Z,18.03
2019-04-23T22:50:18.874Z,18.10
2019-04-23T22:53:20.531Z,18.13
2019-04-23T22:59:01.972Z,18.90
2019-04-23T23:04:35.389Z,18.53
2019-04-23T23:07:19.717Z,18.10
2019-04-23T23:10:42.384Z,17.90
2019-04-23T23:15:53.380Z,18.30
2019-04-23T23:18:35.668Z,19.57
2019-04-23T23:21:36.391Z,19.83
2019-04-23T23:24:13.611Z,18.23
2019-04-23T23:27:18.360Z,18.20
2019-04-23T23:30:04.987Z,18.53
2019-04-23T23:32:49.097Z,18.87
2019-04-23T23:35:34.826Z,17.50
2019-04-23T23:41:20.791Z,18.20
2019-04-23T23:44:28.150Z,19.83
2019-04-23T23:52:42.704Z,19.73
2019-04-23T23:55:19.852Z,19.57
2019-04-23T23:58:23.450Z,19.50
